Time;durP1;ratioP1;P1;durP2;ratioP2;P2;SDS_P1;SDS_P2;PMS_P1;PMS_P2;Temp;Humidity;BMP_temperature;BMP_pressure;BME280_temperature;BME280_humidity;BME280_pressure;Samples;Min_cycle;Max_cycle;Signal;HPM_P1;HPM_P2
2021/12/05 00:19:53;;;;;;;4.05;2.20;;;;;;;0.78;100.00;99449.75;6198041;28;20481;-76
2021/12/05 00:22:55;;;;;;;1.90;1.77;;;;;;;0.76;100.00;99448.94;6217533;28;20054;-76
2021/12/05 00:26:00;;;;;;;4.30;2.67;;;;;;;0.79;100.00;99441.06;6222363;28;20045;-76
2021/12/05 00:29:15;;;;;;;3.90;2.55;;;;;;;0.78;100.00;99441.97;6222370;28;20386;-76
2021/12/05 00:32:22;;;;;;;4.00;2.35;;;;;;;0.80;100.00;99436.75;6221110;28;20429;-77
2021/12/05 00:35:58;;;;;;;4.22;2.35;;;;;;;0.85;100.00;99435.69;6222410;28;20072;-76
2021/12/05 00:46:03;;;;;;;2.95;2.28;;;;;;;0.88;100.00;99456.28;6221907;28;20445;-76
2021/12/05 00:49:28;;;;;;;3.85;2.13;;;;;;;0.92;100.00;99470.78;6221996;28;20089;-76
2021/12/05 00:52:52;;;;;;;4.90;2.08;;;;;;;0.96;100.00;99467.22;6222027;28;20521;-76
2021/12/05 00:56:04;;;;;;;4.38;2.83;;;;;;;0.95;100.00;99468.13;6221798;28;20045;-76
2021/12/05 00:59:38;;;;;;;3.28;2.13;;;;;;;0.98;100.00;99468.00;6222202;28;20077;-76
2021/12/05 01:03:11;;;;;;;4.20;2.47;;;;;;;0.98;100.00;99473.16;6220913;28;20616;-76
2021/12/05 01:06:50;;;;;;;2.88;2.33;;;;;;;1.04;100.00;99473.84;6212479;28;20042;-76
2021/12/05 01:10:05;;;;;;;3.53;2.25;;;;;;;1.06;100.00;99479.81;6217174;28;20100;-76
2021/12/05 01:13:28;;;;;;;4.85;3.15;;;;;;;1.06;100.00;99477.22;6220027;28;20520;-76
2021/12/05 01:16:31;;;;;;;3.72;2.22;;;;;;;1.02;100.00;99489.41;6213724;28;20053;-76
2021/12/05 01:19:34;;;;;;;4.80;2.03;;;;;;;1.05;100.00;99491.06;6213538;28;20050;-76
2021/12/05 01:22:40;;;;;;;4.72;2.92;;;;;;;1.07;100.00;99494.44;6221548;28;20053;-77
2021/12/05 01:25:43;;;;;;;7.75;3.03;;;;;;;1.07;100.00;99494.44;6221699;28;20062;-76
2021/12/05 01:29:01;;;;;;;3.22;2.20;;;;;;;1.11;100.00;99499.44;6221696;28;20061;-76
2021/12/05 01:32:13;;;;;;;7.70;3.93;;;;;;;1.16;100.00;99505.31;6213062;28;20520;-76
2021/12/05 01:35:28;;;;;;;3.47;2.30;;;;;;;1.21;100.00;99515.50;6224349;28;20744;-76
2021/12/05 01:38:45;;;;;;;3.85;2.63;;;;;;;1.25;100.00;99525.69;6225986;28;20100;-76
2021/12/05 01:42:21;;;;;;;6.97;3.55;;;;;;;1.25;100.00;99528.28;6225343;28;20097;-76
2021/12/05 01:59:01;;;;;;;4.38;2.38;;;;;;;1.58;100.00;99530.56;6225322;28;20061;-77
2021/12/05 02:09:12;;;;;;;4.53;2.88;;;;;;;1.77;100.00;99517.78;6162818;28;20042;-76
2021/12/05 02:15:57;;;;;;;10.20;4.10;;;;;;;1.92;100.00;99514.63;6200881;28;20137;-76
2021/12/05 02:35:56;;;;;;;6.25;2.85;;;;;;;2.09;100.00;99515.72;6187814;28;20046;-76
2021/12/05 02:39:15;;;;;;;9.48;3.83;;;;;;;2.16;100.00;99522.38;6200324;28;20047;-77
2021/12/05 02:42:26;;;;;;;3.90;2.58;;;;;;;2.25;100.00;99516.81;6200095;28;20055;-76
2021/12/05 02:45:28;;;;;;;7.70;3.60;;;;;;;2.24;100.00;99515.16;6199874;28;20058;-76
2021/12/05 02:48:32;;;;;;;4.60;2.92;;;;;;;2.26;100.00;99523.69;6199923;28;20050;-76
2021/12/05 02:51:34;;;;;;;4.15;2.65;;;;;;;2.29;100.00;99518.41;6199635;28;20415;-76
2021/12/05 02:54:41;;;;;;;4.80;2.90;;;;;;;2.31;100.00;99526.94;6199613;28;20096;-76
2021/12/05 02:57:52;;;;;;;6.07;3.05;;;;;;;2.33;100.00;99530.34;6199689;28;20053;-76
2021/12/05 03:01:08;;;;;;;3.67;2.75;;;;;;;2.29;100.00;99533.94;6204154;28;20050;-76
2021/12/05 03:04:10;;;;;;;6.10;4.13;;;;;;;2.30;100.00;99530.44;6215329;28;20453;-75
2021/12/05 03:07:12;;;;;;;5.45;3.08;;;;;;;2.32;100.00;99527.78;6222041;28;20046;-74
2021/12/05 03:10:18;;;;;;;5.53;3.63;;;;;;;2.36;100.00;99532.78;6215145;28;20050;-75
2021/12/05 03:13:20;;;;;;;6.45;4.22;;;;;;;2.36;100.00;99543.16;6215231;28;20054;-75
2021/12/05 03:16:24;;;;;;;7.00;3.72;;;;;;;2.33;100.00;99537.28;6199165;28;20532;-75
2021/12/05 03:19:25;;;;;;;10.60;3.58;;;;;;;2.34;100.00;99532.00;6209246;28;20069;-75
2021/12/05 03:22:27;;;;;;;5.63;3.72;;;;;;;2.39;100.00;99540.44;6223215;28;20057;-75
2021/12/05 03:25:30;;;;;;;5.80;2.70;;;;;;;2.40;100.00;99547.31;6221830;28;20413;-75
2021/12/05 03:28:31;;;;;;;4.65;3.08;;;;;;;2.45;100.00;99548.00;6216328;28;20425;-75
2021/12/05 03:31:33;;;;;;;5.38;3.15;;;;;;;2.49;100.00;99553.91;6222773;28;20050;-75
2021/12/05 03:34:35;;;;;;;5.03;3.40;;;;;;;2.51;100.00;99555.53;6221375;28;20050;-76
2021/12/05 03:37:37;;;;;;;4.35;3.22;;;;;;;2.53;100.00;99560.66;6222823;28;20053;-75
2021/12/05 03:40:40;;;;;;;7.25;3.22;;;;;;;2.52;100.00;99572.78;6222514;28;20057;-75
2021/12/05 03:43:45;;;;;;;4.18;2.72;;;;;;;2.52;100.00;99571.94;6222724;28;20053;-74
2021/12/05 03:46:48;;;;;;;5.22;2.97;;;;;;;2.52;100.00;99571.94;6222767;28;20138;-75
2021/12/05 03:49:50;;;;;;;9.88;3.58;;;;;;;2.53;100.00;99578.81;6222571;28;20053;-74
2021/12/05 03:52:52;;;;;;;5.68;3.22;;;;;;;2.55;100.00;99571.81;6222637;28;20057;-74
2021/12/05 03:55:57;;;;;;;7.90;4.28;;;;;;;2.55;100.00;99579.59;6221958;28;20417;-75
2021/12/05 03:58:58;;;;;;;5.20;3.72;;;;;;;2.61;100.00;99583.69;6222493;28;20049;-75
2021/12/05 04:02:02;;;;;;;5.10;3.67;;;;;;;2.56;100.00;99590.81;6222478;28;20497;-75
2021/12/05 04:05:04;;;;;;;5.45;3.20;;;;;;;2.57;100.00;99590.75;6221627;28;20050;-75
2021/12/05 04:08:10;;;;;;;8.85;4.13;;;;;;;2.59;100.00;99596.72;6222472;28;20149;-74
2021/12/05 04:11:18;;;;;;;5.97;3.63;;;;;;;2.63;100.00;99595.69;6215885;28;20125;-75
2021/12/05 04:14:19;;;;;;;6.78;3.55;;;;;;;2.64;100.00;99604.34;6198364;28;20132;-75
2021/12/05 04:17:22;;;;;;;7.75;4.47;;;;;;;2.65;100.00;99611.19;6197862;28;20042;-75
2021/12/05 04:20:24;;;;;;;7.28;3.90;;;;;;;2.69;100.00;99623.16;6197930;28;20057;-75
2021/12/05 04:23:27;;;;;;;6.35;3.92;;;;;;;2.68;100.00;99624.03;6197696;28;20049;-75
2021/12/05 04:26:30;;;;;;;7.07;3.35;;;;;;;2.74;100.00;99636.78;6197768;28;20046;-74
2021/12/05 04:29:33;;;;;;;7.10;4.78;;;;;;;2.74;100.00;99641.97;6212463;28;20057;-75
2021/12/05 04:32:34;;;;;;;10.35;4.05;;;;;;;2.76;100.00;99648.78;6221893;28;20140;-75
2021/12/05 04:35:36;;;;;;;7.35;3.95;;;;;;;2.75;100.00;99654.88;6222189;28;20058;-74
2021/12/05 04:38:37;;;;;;;8.07;4.65;;;;;;;2.76;100.00;99653.13;6221955;28;20057;-75
2021/12/05 04:41:41;;;;;;;11.23;3.55;;;;;;;2.78;100.00;99656.50;6222025;28;20054;-76
2021/12/05 04:44:42;;;;;;;7.57;3.72;;;;;;;2.77;100.00;99665.19;6221978;28;20705;-76
2021/12/05 04:47:45;;;;;;;10.40;3.80;;;;;;;2.77;100.00;99671.25;6222161;28;20057;-76
2021/12/05 04:50:47;;;;;;;9.20;4.47;;;;;;;2.79;100.00;99672.00;6221741;28;20188;-75
2021/12/05 04:53:48;;;;;;;5.35;3.78;;;;;;;2.79;100.00;99677.19;6220273;28;20049;-76
2021/12/05 04:56:51;;;;;;;9.38;4.63;;;;;;;2.77;100.00;99678.16;6221913;28;20046;-75
2021/12/05 04:59:53;;;;;;;8.68;4.68;;;;;;;2.79;100.00;99684.13;6221635;28;20050;-76
2021/12/05 05:02:56;;;;;;;11.60;4.35;;;;;;;2.77;100.00;99675.56;6221464;28;20042;-75
2021/12/05 05:06:03;;;;;;;7.10;4.53;;;;;;;2.80;100.00;99678.03;6216388;28;20053;-76
2021/12/05 05:09:05;;;;;;;7.47;3.90;;;;;;;2.81;100.00;99677.13;6216983;28;20141;-75
2021/12/05 05:12:08;;;;;;;9.20;4.82;;;;;;;2.82;100.00;99680.56;6224059;28;20041;-75
2021/12/05 05:15:11;;;;;;;5.70;4.03;;;;;;;2.84;100.00;99686.56;6219445;28;20050;-76
2021/12/05 05:18:13;;;;;;;6.18;3.67;;;;;;;2.82;100.00;99691.81;6224972;28;20049;-76
2021/12/05 05:21:28;;;;;;;6.43;3.83;;;;;;;2.83;100.00;99697.84;6218842;28;20163;-76
2021/12/05 05:28:31;;;;;;;7.53;3.97;;;;;;;2.82;100.00;99699.59;6225968;28;20057;-76
2021/12/05 05:45:18;;;;;;;7.22;4.53;;;;;;;2.87;100.00;99712.41;6224708;28;20045;-75
2021/12/05 05:51:44;;;;;;;9.98;4.63;;;;;;;2.83;100.00;99716.84;6219418;28;20050;-75
2021/12/05 05:54:47;;;;;;;9.57;4.45;;;;;;;2.84;100.00;99722.88;6209236;28;20058;-75
2021/12/05 05:57:59;;;;;;;8.23;3.65;;;;;;;2.82;100.00;99720.34;6200773;28;20482;-76
2021/12/05 06:01:03;;;;;;;6.03;3.55;;;;;;;2.80;100.00;99728.16;6200737;28;20054;-75
2021/12/05 06:04:06;;;;;;;11.50;4.32;;;;;;;2.85;100.00;99724.56;6200663;28;20157;-75
2021/12/05 06:07:08;;;;;;;8.32;3.92;;;;;;;2.78;100.00;99722.22;6200886;28;20073;-75
2021/12/05 06:10:11;;;;;;;6.05;3.35;;;;;;;2.76;100.00;99726.59;6200348;28;20112;-75
2021/12/05 06:13:12;;;;;;;7.47;3.65;;;;;;;2.76;100.00;99729.19;6200778;28;20053;-75
2021/12/05 06:16:17;;;;;;;8.40;4.10;;;;;;;2.75;100.00;99731.84;6200419;28;20069;-75
2021/12/05 06:19:18;;;;;;;12.00;3.42;;;;;;;2.75;100.00;99739.63;6208612;28;20046;-75
2021/12/05 06:22:19;;;;;;;6.45;3.55;;;;;;;2.73;100.00;99736.25;6224556;28;20056;-75
2021/12/05 06:25:24;;;;;;;8.43;3.45;;;;;;;2.74;100.00;99745.72;6224756;28;20054;-75
2021/12/05 06:28:32;;;;;;;7.63;3.85;;;;;;;2.76;100.00;99742.16;6224732;28;20503;-75
2021/12/05 06:31:52;;;;;;;8.35;3.67;;;;;;;2.80;100.00;99748.09;6224167;28;20077;-75
2021/12/05 06:38:34;;;;;;;6.88;2.80;;;;;;;2.82;100.00;99761.00;6224261;28;20141;-75
2021/12/05 06:41:50;;;;;;;8.55;2.85;;;;;;;2.83;100.00;99768.75;6223967;28;20551;-75
2021/12/05 06:48:12;;;;;;;4.35;2.80;;;;;;;2.83;100.00;99776.53;6224131;28;20050;-75
2021/12/05 06:51:16;;;;;;;6.43;2.95;;;;;;;2.84;100.00;99773.00;6223879;28;20050;-75
2021/12/05 06:54:17;;;;;;;5.05;2.92;;;;;;;2.85;100.00;99773.84;6223800;28;20049;-75
2021/12/05 06:57:19;;;;;;;2.58;1.95;;;;;;;2.86;100.00;99791.13;6222576;28;20493;-75
2021/12/05 07:00:25;;;;;;;6.75;2.75;;;;;;;2.88;100.00;99786.72;6223509;28;20049;-76
2021/12/05 07:03:27;;;;;;;9.18;3.33;;;;;;;2.87;100.00;99790.22;6223128;28;20057;-75
2021/12/05 07:06:30;;;;;;;6.18;3.58;;;;;;;2.87;100.00;99790.22;6222218;28;20054;-75
2021/12/05 07:09:32;;;;;;;6.93;2.78;;;;;;;2.88;100.00;99794.50;6214183;28;20069;-75
2021/12/05 07:15:51;;;;;;;4.50;2.50;;;;;;;2.88;100.00;99808.31;6209697;28;20560;-75
2021/12/05 07:19:09;;;;;;;4.68;2.88;;;;;;;2.89;100.00;99802.22;6210655;28;20057;-75
2021/12/05 07:22:22;;;;;;;4.80;2.27;;;;;;;2.90;100.00;99809.09;6210831;28;20053;-75
2021/12/05 07:25:30;;;;;;;12.40;3.22;;;;;;;2.93;100.00;99818.53;6210132;28;20285;-75
2021/12/05 07:42:03;;;;;;;;;;;;;;;2.92;100.00;99835.84;6198776;28;20051;-75
2021/12/05 07:45:06;;;;;;;3.33;2.10;;;;;;;2.97;100.00;99853.84;6209731;28;20443;-74
2021/12/05 07:48:12;;;;;;;4.32;2.22;;;;;;;2.94;100.00;99849.59;6220365;28;20052;-75
2021/12/05 07:51:25;;;;;;;4.38;1.85;;;;;;;2.94;100.00;99864.34;6220323;28;20489;-75
2021/12/05 07:54:34;;;;;;;2.30;1.95;;;;;;;2.97;100.00;99867.69;6220620;28;20137;-75
2021/12/05 07:57:45;;;;;;;3.53;2.70;;;;;;;2.99;100.00;99867.59;6208638;28;20054;-74
2021/12/05 08:00:57;;;;;;;2.95;2.15;;;;;;;3.01;100.00;99873.59;6196963;28;20050;-75
2021/12/05 08:17:18;;;;;;;3.20;2.13;;;;;;;3.20;100.00;99897.97;6198079;28;20141;-75
2021/12/05 08:20:22;;;;;;;9.25;3.28;;;;;;;3.26;100.00;99907.28;6197898;28;20513;-75
2021/12/05 08:23:25;;;;;;;6.22;3.08;;;;;;;3.30;100.00;99903.69;6197798;28;20053;-75
2021/12/05 08:26:32;;;;;;;7.55;3.55;;;;;;;3.35;100.00;99906.09;6198077;28;20049;-74
2021/12/05 08:29:42;;;;;;;7.22;2.95;;;;;;;3.39;100.00;99918.91;6197663;28;20104;-74
2021/12/05 08:32:57;;;;;;;7.05;2.13;;;;;;;3.42;100.00;99921.41;6202832;28;20065;-74
2021/12/05 08:36:30;;;;;;;8.82;1.88;;;;;;;3.47;100.00;99934.22;6197651;28;20042;-75
2021/12/05 08:40:16;;;;;;;3.42;1.92;;;;;;;3.52;100.00;99935.75;6214851;28;20045;-74
2021/12/05 09:24:15;;;;;;;8.52;1.67;;;;;;;4.17;100.00;100003.44;6202928;28;20054;-78
2021/12/05 09:30:51;;;;;;;1.98;1.30;;;;;;;4.29;100.00;100016.81;6220396;28;20046;-77
2021/12/05 09:50:59;;;;;;;2.05;1.30;;;;;;;4.29;100.00;100032.44;6226093;28;20053;-78
2021/12/05 10:08:00;;;;;;;1.42;0.90;;;;;;;4.51;100.00;100055.84;6218161;28;20105;-78
2021/12/05 10:11:16;;;;;;;1.77;1.25;;;;;;;4.51;100.00;100062.81;6218461;28;20133;-77
2021/12/05 10:14:29;;;;;;;2.22;0.95;;;;;;;4.51;100.00;100068.84;6213708;28;20050;-77
2021/12/05 10:17:52;;;;;;;3.40;1.70;;;;;;;4.50;100.00;100067.16;6214497;28;20049;-76
2021/12/05 10:34:14;;;;;;;3.58;1.20;;;;;;;4.54;100.00;100079.16;6219652;28;20493;-77
2021/12/05 10:37:23;;;;;;;6.78;0.88;;;;;;;4.55;100.00;100080.84;6221763;28;20054;-78
2021/12/05 10:40:34;;;;;;;1.70;0.98;;;;;;;4.54;100.00;100084.34;6216086;28;20042;-78
2021/12/05 10:43:35;;;;;;;2.95;1.20;;;;;;;4.54;100.00;100086.09;6219152;28;20103;-78
2021/12/05 10:46:39;;;;;;;1.77;0.93;;;;;;;4.54;100.00;100084.34;6222869;28;20674;-78
2021/12/05 10:49:40;;;;;;;2.15;1.13;;;;;;;4.56;100.00;100085.13;6217733;28;20046;-78
2021/12/05 10:52:43;;;;;;;7.03;1.02;;;;;;;4.55;100.00;100088.66;6224372;28;20109;-78
2021/12/05 10:55:45;;;;;;;0.93;0.77;;;;;;;4.57;100.00;100085.97;6219556;28;20046;-79
2021/12/05 10:58:50;;;;;;;2.92;0.77;;;;;;;4.56;100.00;100090.34;6226724;28;20049;-78
2021/12/05 11:01:56;;;;;;;1.58;0.90;;;;;;;4.59;100.00;100091.97;6214527;28;20061;-80
2021/12/05 11:04:57;;;;;;;0.65;0.60;;;;;;;4.63;100.00;100100.50;6225186;28;20046;-80
2021/12/05 11:08:00;;;;;;;9.32;1.42;;;;;;;4.64;100.00;100100.44;6222813;28;20398;-78
2021/12/05 11:11:10;;;;;;;7.78;1.13;;;;;;;4.63;100.00;100103.09;6208625;28;20045;-78
2021/12/05 11:14:16;;;;;;;1.45;0.98;;;;;;;4.66;100.00;100108.19;6217999;28;20050;-78
2021/12/05 11:17:19;;;;;;;1.83;0.90;;;;;;;4.65;100.00;100103.91;6206562;28;20046;-77
2021/12/05 11:20:29;;;;;;;2.60;1.35;;;;;;;4.66;100.00;100109.03;6217649;28;20049;-78
2021/12/05 11:23:32;;;;;;;2.35;0.60;;;;;;;4.65;100.00;100115.16;6218206;28;20058;-78
2021/12/05 11:26:35;;;;;;;2.05;0.80;;;;;;;4.66;100.00;100118.59;6219207;28;20433;-78
2021/12/05 11:30:00;;;;;;;5.32;1.00;;;;;;;4.66;100.00;100119.44;6213055;28;20054;-78
2021/12/05 11:33:05;;;;;;;4.57;0.90;;;;;;;4.69;100.00;100119.34;6212976;28;20053;-79
2021/12/05 11:36:09;;;;;;;6.95;1.10;;;;;;;4.66;100.00;100118.59;6223013;28;20046;-76
2021/12/05 11:39:22;;;;;;;3.05;1.13;;;;;;;4.72;100.00;100118.34;6204036;28;20046;-76
2021/12/05 11:42:23;;;;;;;1.30;0.65;;;;;;;4.71;100.00;100120.09;6208439;28;20063;-76
2021/12/05 11:45:25;;;;;;;2.03;0.88;;;;;;;4.72;100.00;100118.34;6216534;28;20052;-76
2021/12/05 11:48:28;;;;;;;1.90;0.70;;;;;;;4.78;100.00;100118.97;6223019;28;20046;-76
2021/12/05 11:51:32;;;;;;;1.20;0.75;;;;;;;4.78;100.00;100115.53;6222685;28;20057;-76
2021/12/05 11:54:37;;;;;;;1.90;0.98;;;;;;;4.83;100.00;100113.59;6222971;28;20058;-76
2021/12/05 11:57:38;;;;;;;1.88;0.88;;;;;;;4.86;100.00;100117.78;6223095;28;20049;-76
2021/12/05 12:00:40;;;;;;;4.05;1.08;;;;;;;4.86;100.00;100118.69;6214436;28;20050;-76
2021/12/05 12:03:42;;;;;;;4.97;0.57;;;;;;;4.88;100.00;100116.84;6221866;28;20057;-76
2021/12/05 12:06:46;;;;;;;0.65;0.50;;;;;;;4.93;100.00;100120.09;6214900;28;20661;-76
2021/12/05 12:09:53;;;;;;;1.48;0.75;;;;;;;4.97;100.00;100121.69;6212421;28;20049;-75
2021/12/05 12:12:56;;;;;;;1.35;1.23;;;;;;;4.97;100.00;100126.88;6222607;28;20057;-76
2021/12/05 12:16:02;;;;;;;1.40;0.63;;;;;;;5.00;100.00;100128.53;6214093;28;20493;-77
2021/12/05 12:19:06;;;;;;;8.27;0.75;;;;;;;5.00;100.00;100131.13;6221944;28;20142;-76
2021/12/05 12:22:08;;;;;;;1.77;0.95;;;;;;;4.98;100.00;100128.56;6222246;28;20088;-75
2021/12/05 12:25:15;;;;;;;4.13;1.15;;;;;;;4.95;100.00;100136.53;6215373;28;20555;-76
2021/12/05 12:28:17;;;;;;;0.60;0.60;;;;;;;4.95;100.00;100133.06;6219677;28;20050;-76
2021/12/05 12:31:25;;;;;;;3.88;1.15;;;;;;;4.97;100.00;100136.47;6206809;28;20050;-76
2021/12/05 12:34:27;;;;;;;2.22;0.85;;;;;;;5.01;100.00;100133.66;6202633;28;20051;-75
2021/12/05 12:37:28;;;;;;;0.55;0.52;;;;;;;4.90;100.00;100140.19;6197801;28;20054;-76
2021/12/05 12:40:50;;;;;;;1.80;0.70;;;;;;;4.88;100.00;100142.88;6219113;28;20485;-75
2021/12/05 12:43:54;;;;;;;1.15;0.60;;;;;;;4.87;100.00;100145.56;6212726;28;20054;-75
2021/12/05 12:46:57;;;;;;;3.08;0.90;;;;;;;4.85;100.00;100148.19;6222198;28;20061;-76
2021/12/05 12:50:20;;;;;;;0.98;0.70;;;;;;;4.85;100.00;100150.78;6221910;28;20053;-76
2021/12/05 12:53:26;;;;;;;4.40;1.20;;;;;;;4.84;100.00;100162.13;6222109;28;20053;-75
2021/12/05 12:56:30;;;;;;;0.68;0.60;;;;;;;4.76;100.00;100161.56;6201853;28;20108;-75
2021/12/05 12:59:35;;;;;;;0.77;0.55;;;;;;;4.74;100.00;100153.00;6197682;28;20072;-75
2021/12/05 13:02:56;;;;;;;0.77;0.55;;;;;;;4.73;100.00;100167.75;6199622;28;20058;-75
2021/12/05 13:13:05;;;;;;;0.70;0.57;;;;;;;4.60;100.00;100171.72;6211010;28;20054;-75
2021/12/05 13:16:12;;;;;;;1.20;0.65;;;;;;;4.61;100.00;100183.84;6218129;28;20800;-76
2021/12/05 13:19:18;;;;;;;1.13;0.88;;;;;;;4.61;100.00;100185.59;6215580;28;20042;-76
2021/12/05 13:22:19;;;;;;;3.53;0.45;;;;;;;4.58;100.00;100189.97;6209006;28;20105;-76
2021/12/05 13:25:21;;;;;;;0.70;0.50;;;;;;;4.54;100.00;100191.03;6208659;28;20841;-75
2021/12/05 13:28:36;;;;;;;1.15;0.80;;;;;;;4.53;100.00;100196.28;6214666;28;20061;-76
2021/12/05 13:31:43;;;;;;;0.70;0.32;;;;;;;4.52;100.00;100190.22;6219567;28;20050;-75
2021/12/05 13:34:50;;;;;;;0.35;0.35;;;;;;;4.54;100.00;100200.56;6226232;28;20060;-75
2021/12/05 13:37:53;;;;;;;2.72;0.82;;;;;;;4.54;100.00;100211.84;6222154;28;20470;-75
2021/12/05 13:40:56;;;;;;;0.77;0.38;;;;;;;4.55;100.00;100208.34;6201287;28;20501;-75
2021/12/05 13:44:02;;;;;;;0.73;0.57;;;;;;;4.55;100.00;100208.34;6201287;28;20062;-75
2021/12/05 13:47:16;;;;;;;0.47;0.47;;;;;;;4.54;100.00;100214.44;6201693;28;20054;-76
2021/12/05 13:50:36;;;;;;;1.40;0.60;;;;;;;4.54;100.00;100213.56;6201072;28;20046;-76
2021/12/05 13:53:47;;;;;;;1.55;0.70;;;;;;;4.52;100.00;100223.22;6201347;28;20050;-76
2021/12/05 13:56:48;;;;;;;1.75;0.70;;;;;;;4.50;100.00;100219.81;6201015;28;20135;-76
2021/12/05 13:59:51;;;;;;;0.90;0.57;;;;;;;4.50;100.00;100225.03;6221477;28;20413;-78
2021/12/05 14:02:53;;;;;;;4.25;0.50;;;;;;;4.49;100.00;100231.97;6225409;28;20060;-74
2021/12/05 14:05:54;;;;;;;1.13;0.60;;;;;;;4.49;100.00;100228.50;6225495;28;20057;-75
2021/12/05 14:08:59;;;;;;;1.00;0.70;;;;;;;4.50;100.00;100238.88;6224666;28;20046;-74
2021/12/05 14:12:06;;;;;;;0.63;0.40;;;;;;;4.50;100.00;100230.25;6225152;28;20528;-74
2021/12/05 14:15:10;;;;;;;1.05;0.85;;;;;;;4.48;100.00;100251.09;6225026;28;20056;-74
2021/12/05 14:18:19;;;;;;;1.55;0.70;;;;;;;4.47;100.00;100249.41;6225189;28;20089;-75
2021/12/05 14:21:23;;;;;;;0.90;0.60;;;;;;;4.46;100.00;100252.06;6224692;28;20045;-74
2021/12/05 14:24:31;;;;;;;1.13;0.45;;;;;;;4.43;100.00;100257.38;6224880;28;20497;-75
2021/12/05 14:27:39;;;;;;;1.73;0.80;;;;;;;4.43;100.00;100255.59;6224184;28;20056;-75
2021/12/05 14:30:44;;;;;;;0.95;0.65;;;;;;;4.44;100.00;100264.25;6200502;28;20047;-74
2021/12/05 14:33:47;;;;;;;0.82;0.60;;;;;;;4.43;100.00;100270.38;6200287;28;20050;-74
2021/12/05 14:36:55;;;;;;;2.47;0.60;;;;;;;4.39;100.00;100280.03;6199991;28;20061;-75
2021/12/05 14:40:00;;;;;;;1.52;0.70;;;;;;;4.38;100.00;100283.53;6199391;28;20395;-75
2021/12/05 14:43:05;;;;;;;2.30;0.75;;;;;;;4.35;100.00;100288.84;6200876;28;20046;-75
2021/12/05 14:46:08;;;;;;;0.50;0.45;;;;;;;4.32;100.00;100295.03;6200106;28;20057;-74
2021/12/05 14:49:09;;;;;;;1.33;0.75;;;;;;;4.32;100.00;100300.22;6200015;28;20399;-75
2021/12/05 14:52:16;;;;;;;4.78;1.02;;;;;;;4.28;100.00;100311.63;6199852;28;20055;-75
2021/12/05 14:55:20;;;;;;;0.45;0.43;;;;;;;4.24;100.00;100312.63;6199569;28;20054;-75
2021/12/05 14:58:21;;;;;;;0.85;0.57;;;;;;;4.22;100.00;100313.56;6202643;28;20042;-74
2021/12/05 15:01:28;;;;;;;1.27;0.77;;;;;;;4.21;100.00;100327.50;6216115;28;20504;-75
2021/12/05 15:04:34;;;;;;;3.25;1.77;;;;;;;4.20;100.00;100331.84;6218158;28;20057;-74
2021/12/05 15:07:36;;;;;;;3.90;1.23;;;;;;;4.20;100.00;100337.03;6223402;28;20053;-74
2021/12/05 15:10:38;;;;;;;2.22;1.00;;;;;;;4.20;100.00;100351.81;6215175;28;20042;-75
2021/12/05 15:13:40;;;;;;;3.17;1.45;;;;;;;4.18;100.00;100353.59;6215128;28;20054;-75
2021/12/05 15:16:56;;;;;;;2.92;1.30;;;;;;;4.17;100.00;100357.94;6222640;28;20057;-74
2021/12/05 15:20:00;;;;;;;2.80;1.17;;;;;;;4.19;100.00;100365.72;6214861;28;20416;-75
2021/12/05 15:23:04;;;;;;;1.48;0.63;;;;;;;4.19;100.00;100376.97;6223452;28;20054;-75
2021/12/05 15:26:07;;;;;;;5.38;0.85;;;;;;;4.17;100.00;100373.53;6215169;28;20049;-74
2021/12/05 15:29:09;;;;;;;2.58;1.05;;;;;;;4.18;100.00;100372.66;6223532;28;20061;-74
2021/12/05 15:32:18;;;;;;;0.40;0.40;;;;;;;4.18;100.00;100385.66;6223153;28;20049;-75
2021/12/05 15:35:20;;;;;;;4.22;0.73;;;;;;;4.17;100.00;100396.09;6219115;28;20049;-74
2021/12/05 15:38:25;;;;;;;2.30;0.95;;;;;;;4.19;100.00;100402.97;6214861;28;20049;-74
2021/12/05 15:41:29;;;;;;;2.90;1.20;;;;;;;4.17;100.00;100402.16;6215530;28;20049;-74
2021/12/05 15:44:37;;;;;;;8.75;1.50;;;;;;;4.16;100.00;100405.66;6214568;28;20054;-74
2021/12/05 15:47:40;;;;;;;5.88;2.08;;;;;;;4.15;100.00;100397.91;6222991;28;20513;-74
2021/12/05 15:50:42;;;;;;;3.70;1.90;;;;;;;4.13;100.00;100405.75;6222511;28;20038;-74
2021/12/05 15:53:44;;;;;;;5.07;2.65;;;;;;;4.14;100.00;100410.06;6213698;28;20050;-74
2021/12/05 15:56:51;;;;;;;11.88;2.40;;;;;;;4.12;100.00;100413.59;6222986;28;20053;-75
2021/12/05 15:59:52;;;;;;;6.93;3.47;;;;;;;4.09;100.00;100417.19;6222318;28;20486;-74
2021/12/05 16:03:00;;;;;;;5.57;3.20;;;;;;;4.11;100.00;100430.13;6221064;28;20089;-75
2021/12/05 16:06:04;;;;;;;4.95;3.00;;;;;;;4.09;100.00;100424.97;6222765;28;20053;-74
2021/12/05 16:09:12;;;;;;;7.90;2.92;;;;;;;4.06;100.00;100433.72;6216333;28;20065;-75
2021/12/05 16:12:17;;;;;;;3.67;2.63;;;;;;;4.03;100.00;100436.41;6221315;28;20091;-75
2021/12/05 16:15:21;;;;;;;5.30;3.40;;;;;;;4.01;100.00;100437.38;6222468;28;20074;-75
2021/12/05 16:18:33;;;;;;;6.70;3.58;;;;;;;3.97;100.00;100447.00;6222458;28;20520;-74
2021/12/05 16:21:36;;;;;;;5.55;2.70;;;;;;;3.96;100.00;100452.25;6222196;28;20049;-74
2021/12/05 16:24:40;;;;;;;6.18;3.30;;;;;;;3.89;100.00;100454.19;6222228;28;20050;-75
2021/12/05 16:27:48;;;;;;;6.90;3.58;;;;;;;3.88;100.00;100459.44;6222415;28;20137;-75
2021/12/05 16:30:56;;;;;;;7.22;4.03;;;;;;;3.85;100.00;100470.75;6220294;28;20054;-74
2021/12/05 16:34:01;;;;;;;9.57;4.20;;;;;;;3.76;100.00;100464.09;6222315;28;20042;-74
2021/12/05 16:37:04;;;;;;;12.07;4.97;;;;;;;3.76;100.00;100466.69;6222144;28;20054;-75
2021/12/05 16:40:08;;;;;;;14.63;5.57;;;;;;;3.71;100.00;100467.72;6222013;28;20046;-75
2021/12/05 16:43:10;;;;;;;7.15;3.53;;;;;;;3.64;100.00;100467.06;6222014;28;20050;-74
2021/12/05 16:46:14;;;;;;;15.75;5.78;;;;;;;3.59;100.00;100466.34;6222379;28;20050;-75
2021/12/05 16:49:21;;;;;;;12.95;5.55;;;;;;;3.58;100.00;100480.22;6221993;28;20053;-74
2021/12/05 16:52:25;;;;;;;9.52;4.13;;;;;;;3.57;100.00;100483.72;6222178;28;20050;-75
2021/12/05 16:55:29;;;;;;;11.50;5.38;;;;;;;3.59;100.00;100488.84;6216818;28;20058;-75
2021/12/05 16:58:31;;;;;;;10.52;4.20;;;;;;;3.58;100.00;100485.41;6216608;28;20141;-75
2021/12/05 17:01:32;;;;;;;18.95;6.43;;;;;;;3.56;100.00;100484.63;6212352;28;20047;-75
2021/12/05 17:04:49;;;;;;;12.48;6.55;;;;;;;3.52;100.00;100496.84;6217082;28;20042;-75
2021/12/05 17:08:00;;;;;;;9.35;3.95;;;;;;;3.51;100.00;100500.34;6222530;28;20046;-76
2021/12/05 17:11:04;;;;;;;11.90;4.57;;;;;;;3.53;100.00;100506.31;6218250;28;20056;-75
2021/12/05 17:14:06;;;;;;;7.88;4.22;;;;;;;3.51;100.00;100512.47;6218243;28;20053;-75
2021/12/05 17:17:07;;;;;;;14.57;5.50;;;;;;;3.51;100.00;100517.69;6219864;28;20049;-75
2021/12/05 17:20:22;;;;;;;18.10;6.32;;;;;;;3.45;100.00;100526.50;6216082;28;20417;-75
2021/12/05 17:23:27;;;;;;;25.50;8.52;;;;;;;3.42;100.00;100525.72;6213304;28;20053;-75
2021/12/05 17:26:33;;;;;;;19.85;6.45;;;;;;;3.40;100.00;100527.50;6213091;28;20057;-75
2021/12/05 17:29:38;;;;;;;9.93;4.95;;;;;;;3.39;100.00;100536.19;6216921;28;20062;-75
2021/12/05 17:32:39;;;;;;;18.40;6.50;;;;;;;3.36;100.00;100537.13;6211023;28;20054;-76
2021/12/05 17:35:42;;;;;;;11.15;4.72;;;;;;;3.38;100.00;100545.72;6212643;28;20053;-75
2021/12/05 17:38:43;;;;;;;13.77;5.63;;;;;;;3.39;100.00;100546.56;6212111;28;20046;-75
2021/12/05 17:41:47;;;;;;;10.45;4.47;;;;;;;3.40;100.00;100549.13;6211833;28;20041;-76
2021/12/05 17:44:51;;;;;;;14.77;4.43;;;;;;;3.41;100.00;100568.19;6205708;28;20061;-75
2021/12/05 17:47:53;;;;;;;16.85;6.65;;;;;;;3.39;100.00;100565.59;6200069;28;20046;-76
2021/12/05 17:50:56;;;;;;;12.35;6.25;;;;;;;3.36;100.00;100568.31;6200397;28;20053;-75
2021/12/05 17:53:58;;;;;;;14.73;5.03;;;;;;;3.35;100.00;100581.31;6199973;28;20054;-75
2021/12/05 17:57:07;;;;;;;14.68;5.18;;;;;;;3.29;100.00;100574.53;6200337;28;20086;-76
2021/12/05 18:00:15;;;;;;;14.02;5.30;;;;;;;3.27;100.00;100579.78;6199881;28;20046;-74
2021/12/05 18:03:17;;;;;;;15.27;5.97;;;;;;;3.27;100.00;100581.50;6222282;28;20128;-75
2021/12/05 18:06:20;;;;;;;14.77;5.63;;;;;;;3.27;100.00;100586.69;6225423;28;20061;-75
2021/12/05 18:09:21;;;;;;;9.57;4.47;;;;;;;3.27;100.00;100590.16;6225178;28;20519;-75
2021/12/05 18:12:33;;;;;;;9.55;4.40;;;;;;;3.25;100.00;100586.75;6224986;28;20072;-75